DRRN/NIM METAR and TAF weather

Enter ICAO airport designator
Station Type Date Time Source
DRRN METAR 2022/12/04 10:00 UTC NOAA

DRRN 041000Z 11016KT CAVOK 34/M01 Q1012 NOSIG


Station Type Date Time Source
DRRN Decoded METAR 2022/12/04 10:00 UTC NOAA

Niamey-Aero, Niger (DRRN) 13-29N 002-10E 227M
Dec 04, 2022 - 05:00 AM EST / 2022.12.04 1000 UTC
Wind: from the ESE (110 degrees) at 18 MPH (16 KT):0
Visibility: greater than 7 mile(s):0
Temperature: 93 F (34 C)
Dew Point: 30 F (-1 C)
Relative Humidity: 10%
Pressure (altimeter): 29.88 in. Hg (1012 hPa)
ob: DRRN 041000Z 11016KT CAVOK 34/M01 Q1012 NOSIG
cycle: 10

Station Type Date Time Source
DRRN TAF 2022/12/04 06:21 UTC NOAA

TAF DRRN 040500Z 0406/0512 06010KT 8000 NSC
TEMPO 0406/0409 3500 DU
TEMPO 0409/0412 10020KT 4500 BLDU

Example: see airport list